Portada
METAR-TAF:

METAR-TAF

Aeroports :

Cairns, Austràlia

latitud: 16-53S, longitud: 145-45E, altitud: 3 m

Observació

L'informe es va fer fa 16 minuts, a les 11:00 UTC
Vent 5 kt del Est/Sud-Est
Temperatura 17°C
Humitat 68%
Pressió 1018 hPa
Visibilitat 10 km o més

METAR: YBCS 251100Z AUTO 12005KT 9999 // NCD 17/11 Q1018 NOSIG

Hora: 21:16 (11:16 UTC)

Pronòstic

L'informe es va fer fa 6 hores i 7 minuts, a les 05:09 UTC
Pronòstic vàlid del 25 a les 06 UTC al 26 a les 06 UTC
Vent 8 kt del Nord-Est
Visibilitat 10 km o més
sense núvols per sota de 1500 mi sense presència de cumulonimbus.
A partir de les 25 a les 0700 UTC
Vent 6 kt del Sud
Visibilitat 10 km o més
Escasses núvols a una alçada de 3000 ft
A partir de les 26 a les 0000 UTC
Vent 10 kt del Est/Sud-Est
Visibilitat 10 km o més
Escasses núvols a una alçada de 3500 ft

TAF: YBCS 250509Z 2506/2606 05008KT CAVOK FM250700 18006KT 9999 FEW030 FM260000 12010KT 9999 FEW035

Observacions i pronòstics meteorològics de més de 4000 aeroports (METAR i TAF).

Les estacions disponibles són els punts grocs i vermells al mapa.

Posi el ratolí al punt desitjat per veure el nom de l'estació.

Feu clic per veure les observacions i els pronòstics meteorològics.

Per canviar el mapa: feu clic els botons verds amb una creu de color negre per apropar; al botó verd amb un guió per allunyar la imatge; o en les fletxes verdes per a mapes adjacents.


METAR-TAF: